Time;durP1;ratioP1;P1;durP2;ratioP2;P2;SDS_P1;SDS_P2;PMS_P1;PMS_P2;Temp;Humidity;BMP_temperature;BMP_pressure;BME280_temperature;BME280_humidity;BME280_pressure;Samples;Min_cycle;Max_cycle;Signal;HPM_P1;HPM_P2
2022/06/19 00:02:44;;;;;;;12.13;4.30;;;;;;;24.82;47.97;98275.66;6972788;28;20229;-78
2022/06/19 00:06:06;;;;;;;14.20;4.40;;;;;;;25.26;46.57;98274.94;6972286;28;20766;-78
2022/06/19 00:09:27;;;;;;;9.47;4.53;;;;;;;25.46;45.91;98263.38;6975749;28;20304;-78
2022/06/19 00:12:50;;;;;;;12.00;4.40;;;;;;;25.58;45.21;98250.66;6978499;28;20232;-79
2022/06/19 00:16:13;;;;;;;12.63;4.60;;;;;;;25.59;45.41;98255.03;6977837;28;20579;-78
2022/06/19 00:19:34;;;;;;;10.07;4.30;;;;;;;25.36;45.71;98238.81;6977307;28;20206;-78
2022/06/19 00:22:56;;;;;;;11.43;4.60;;;;;;;25.28;46.46;98253.34;6977968;28;20257;-78
2022/06/19 00:26:17;;;;;;;11.37;4.20;;;;;;;24.90;47.18;98252.03;6978093;28;20235;-78
2022/06/19 00:29:40;;;;;;;14.43;4.57;;;;;;;24.49;48.46;98243.00;6977176;28;20241;-78
2022/06/19 00:33:03;;;;;;;11.07;3.90;;;;;;;23.98;49.34;98214.84;6977747;28;20356;-77
2022/06/19 00:36:26;;;;;;;10.40;4.00;;;;;;;23.97;48.96;98214.03;6978087;28;20215;-78
2022/06/19 00:39:48;;;;;;;8.40;3.87;;;;;;;24.77;46.88;98225.31;6976889;28;20297;-78
2022/06/19 00:43:09;;;;;;;8.27;4.00;;;;;;;25.07;45.95;98213.56;6977409;28;20307;-79
2022/06/19 00:46:45;;;;;;;8.93;4.00;;;;;;;24.70;46.99;98209.19;6977673;28;20211;-78
2022/06/19 00:50:22;;;;;;;6.67;3.97;;;;;;;24.06;48.71;98198.41;6976779;28;20194;-78
2022/06/19 00:53:45;;;;;;;8.80;4.10;;;;;;;24.21;48.77;98216.56;6975966;28;20675;-78
2022/06/19 00:57:08;;;;;;;8.50;4.10;;;;;;;24.84;46.99;98212.72;6977598;28;20251;-78
2022/06/19 01:00:31;;;;;;;8.40;3.70;;;;;;;25.29;46.06;98205.31;6976839;28;20575;-78
2022/06/19 01:03:58;;;;;;;14.27;4.03;;;;;;;24.96;46.43;98198.38;6977278;28;20689;-78
2022/06/19 01:07:21;;;;;;;7.80;4.10;;;;;;;24.76;47.04;98193.31;6977161;28;20187;-78
2022/06/19 01:10:45;;;;;;;9.63;3.57;;;;;;;24.93;46.39;98199.81;6976815;28;20238;-78
2022/06/19 01:14:10;;;;;;;8.27;3.00;;;;;;;24.73;47.32;98199.47;6977244;28;20336;-78
2022/06/19 01:17:33;;;;;;;9.03;4.30;;;;;;;24.50;47.58;98209.63;6977000;28;20200;-78
2022/06/19 01:20:58;;;;;;;7.43;3.63;;;;;;;24.61;47.40;98197.25;6975789;28;20276;-78
2022/06/19 01:24:26;;;;;;;12.57;4.30;;;;;;;24.44;48.06;98199.00;6976080;28;20641;-78
2022/06/19 01:31:33;;;;;;;7.87;4.07;;;;;;;24.61;47.61;98197.25;6976068;28;20637;-78
2022/06/19 01:34:54;;;;;;;13.33;5.17;;;;;;;24.21;48.32;98191.78;6976035;28;20349;-78
2022/06/19 01:38:18;;;;;;;10.43;3.80;;;;;;;24.25;48.24;98187.28;6976254;28;20246;-78
2022/06/19 01:41:40;;;;;;;10.17;3.70;;;;;;;24.41;47.50;98183.91;6976709;28;20228;-78
2022/06/19 01:45:04;;;;;;;8.63;3.60;;;;;;;24.28;47.55;98176.47;6976491;28;20245;-78
2022/06/19 01:48:28;;;;;;;8.30;4.07;;;;;;;24.24;47.90;98167.19;6975817;28;20235;-78
2022/06/19 01:51:50;;;;;;;10.03;4.37;;;;;;;24.07;47.92;98138.66;6974944;28;20240;-79
2022/06/19 01:55:15;;;;;;;11.67;3.93;;;;;;;24.25;48.04;98165.25;6976749;28;20338;-78
2022/06/19 01:58:40;;;;;;;6.37;3.53;;;;;;;24.45;47.17;98159.28;6976276;28;20245;-78
2022/06/19 02:02:05;;;;;;;6.77;3.33;;;;;;;23.71;48.68;98133.00;6978233;28;20724;-78
2022/06/19 02:05:26;;;;;;;7.20;3.90;;;;;;;23.69;49.41;98153.69;6980004;28;20271;-79
2022/06/19 02:08:48;;;;;;;11.97;3.97;;;;;;;23.91;48.34;98151.94;6977419;28;20206;-78
2022/06/19 02:12:11;;;;;;;5.63;3.70;;;;;;;24.07;47.99;98153.22;6978332;28;20479;-79
2022/06/19 02:15:33;;;;;;;9.77;3.53;;;;;;;24.02;47.90;98147.81;6977420;28;20286;-78
2022/06/19 02:18:55;;;;;;;9.47;4.17;;;;;;;23.34;49.65;98140.59;6974365;28;20597;-78
2022/06/19 02:22:17;;;;;;;7.70;4.00;;;;;;;23.27;50.23;98142.94;6974973;28;20268;-79
2022/06/19 02:25:41;;;;;;;6.97;3.30;;;;;;;23.61;48.96;98124.94;6974528;28;20238;-79
2022/06/19 02:29:04;;;;;;;9.13;3.73;;;;;;;23.52;49.00;98140.53;6974351;28;20231;-78
2022/06/19 02:32:33;;;;;;;8.17;3.90;;;;;;;23.71;48.60;98154.22;6973322;28;20325;-79
2022/06/19 02:35:55;;;;;;;6.47;3.40;;;;;;;23.43;49.54;98147.84;6974391;28;20231;-78
2022/06/19 02:39:25;;;;;;;9.40;3.80;;;;;;;23.68;48.42;98157.59;6973701;28;20577;-79
2022/06/19 02:42:48;;;;;;;10.20;3.57;;;;;;;23.67;48.24;98151.25;6974265;28;20316;-78
2022/06/19 02:46:10;;;;;;;8.80;3.50;;;;;;;23.54;49.05;98168.56;6974525;28;20195;-79
2022/06/19 02:49:32;;;;;;;8.93;3.70;;;;;;;23.66;48.33;98163.38;6974891;28;20213;-78
2022/06/19 02:52:55;;;;;;;12.30;3.70;;;;;;;23.37;49.02;98165.56;6973336;28;20375;-79
2022/06/19 02:56:16;;;;;;;9.93;3.67;;;;;;;23.28;49.88;98177.59;6976126;28;20636;-78
2022/06/19 02:59:38;;;;;;;9.63;4.13;;;;;;;22.64;50.96;98161.84;6974924;28;20796;-79
2022/06/19 03:03:04;;;;;;;12.50;3.40;;;;;;;22.79;51.23;98175.34;6975552;28;20231;-78
2022/06/19 03:06:25;;;;;;;8.73;3.50;;;;;;;23.32;49.31;98151.94;6976463;28;20338;-79
2022/06/19 03:09:49;;;;;;;7.90;3.77;;;;;;;23.45;49.12;98156.66;6975702;28;20246;-78
2022/06/19 03:13:10;;;;;;;6.37;3.43;;;;;;;23.66;48.54;98168.88;6976011;28;20263;-78
2022/06/19 03:16:32;;;;;;;8.37;3.77;;;;;;;23.43;49.43;98158.06;6975538;28;20244;-78
2022/06/19 03:19:54;;;;;;;7.47;3.70;;;;;;;23.62;48.15;98150.53;6975321;28;20310;-78
2022/06/19 03:23:15;;;;;;;12.03;3.70;;;;;;;23.76;48.00;98156.84;6975243;28;20253;-78
2022/06/19 03:26:38;;;;;;;7.60;3.47;;;;;;;23.54;47.69;98141.03;6972948;28;20214;-80
2022/06/19 03:30:00;;;;;;;7.93;3.37;;;;;;;23.93;46.85;98143.34;6973118;28;20205;-78
2022/06/19 03:33:22;;;;;;;8.80;3.70;;;;;;;23.58;46.91;98083.47;6974772;28;20715;-78
2022/06/19 03:36:43;;;;;;;9.50;3.60;;;;;;;23.69;47.47;98140.78;6975370;28;20679;-79
2022/06/19 03:40:06;;;;;;;13.13;3.90;;;;;;;23.57;47.24;98103.84;6974229;28;20198;-78
2022/06/19 03:43:29;;;;;;;6.53;3.33;;;;;;;23.68;47.39;98103.34;6974344;28;20317;-78
2022/06/19 03:46:50;;;;;;;11.90;3.57;;;;;;;23.93;46.81;98127.63;6974735;28;20206;-78
2022/06/19 03:50:16;;;;;;;11.10;3.33;;;;;;;23.66;47.02;98129.56;6974090;28;20294;-79
2022/06/19 03:53:38;;;;;;;10.17;3.90;;;;;;;23.86;47.16;98129.13;6972897;28;20268;-78
2022/06/19 03:56:59;;;;;;;9.10;3.53;;;;;;;24.05;47.01;98136.19;6973470;28;20290;-78
2022/06/19 04:00:22;;;;;;;11.30;4.03;;;;;;;23.76;47.59;98130.16;6972715;28;20249;-79
2022/06/19 04:03:45;;;;;;;8.00;3.80;;;;;;;23.78;47.30;98119.66;6973937;28;20289;-78
2022/06/19 04:07:07;;;;;;;8.67;4.07;;;;;;;23.28;48.77;98125.31;6973855;28;20662;-78
2022/06/19 04:10:29;;;;;;;9.80;3.30;;;;;;;23.17;49.43;98143.13;6973574;28;20299;-78
2022/06/19 04:13:52;;;;;;;11.93;4.17;;;;;;;23.24;49.33;98136.13;6973678;28;20228;-79
2022/06/19 04:17:15;;;;;;;7.07;4.20;;;;;;;23.35;49.32;98139.50;6978327;28;20206;-79
2022/06/19 04:20:37;;;;;;;14.07;4.50;;;;;;;23.69;48.71;98148.19;6977990;28;20661;-78
2022/06/19 04:24:00;;;;;;;8.27;3.63;;;;;;;23.95;47.98;98132.84;6974040;28;20703;-78
2022/06/19 04:27:23;;;;;;;12.00;4.27;;;;;;;23.98;47.51;98134.97;6978859;28;20199;-79
2022/06/19 04:30:46;;;;;;;6.37;3.67;;;;;;;24.10;47.84;98127.81;6979206;28;20313;-80
2022/06/19 04:34:09;;;;;;;6.50;3.50;;;;;;;24.00;47.99;98125.28;6976826;28;20226;-79
2022/06/19 04:37:31;;;;;;;8.90;4.00;;;;;;;23.52;49.24;98106.69;6973391;28;20213;-79
2022/06/19 04:40:53;;;;;;;8.27;3.53;;;;;;;23.92;48.74;98137.03;6973946;28;20312;-79
2022/06/19 04:44:16;;;;;;;7.87;3.63;;;;;;;23.40;50.11;98142.97;6973436;28;20241;-78
2022/06/19 04:47:38;;;;;;;8.73;4.10;;;;;;;23.70;49.16;98150.66;6972578;28;20224;-79
2022/06/19 04:51:01;;;;;;;7.63;3.20;;;;;;;24.78;46.73;98131.22;6972007;28;20280;-79
2022/06/19 04:54:23;;;;;;;12.33;3.57;;;;;;;25.19;45.51;98139.31;6975137;28;20212;-79
2022/06/19 04:57:46;;;;;;;10.70;4.27;;;;;;;25.40;45.35;98135.75;6977724;28;20686;-79
2022/06/19 05:01:10;;;;;;;8.27;3.83;;;;;;;25.76;45.12;98122.59;6978288;28;20231;-79
2022/06/19 05:04:31;;;;;;;9.63;3.30;;;;;;;25.81;44.04;98105.88;6978300;28;20202;-79
2022/06/19 05:07:54;;;;;;;11.63;3.60;;;;;;;25.75;44.95;98134.78;6977787;28;20215;-79
2022/06/19 05:11:16;;;;;;;8.77;3.60;;;;;;;26.38;44.08;98137.09;6977898;28;20292;-79
2022/06/19 05:14:40;;;;;;;8.30;3.47;;;;;;;26.73;42.70;98116.66;6978106;28;20211;-79
2022/06/19 05:18:02;;;;;;;8.57;3.80;;;;;;;27.40;41.73;98128.78;6976941;28;20210;-79
2022/06/19 05:21:25;;;;;;;13.67;3.87;;;;;;;27.71;41.16;98137.66;6977565;28;20233;-79
2022/06/19 05:24:48;;;;;;;8.07;3.70;;;;;;;27.75;41.31;98133.06;6977698;28;20284;-78
2022/06/19 05:28:09;;;;;;;12.90;3.90;;;;;;;27.80;41.57;98130.97;6977432;28;20237;-79
2022/06/19 05:31:34;;;;;;;13.17;4.37;;;;;;;28.42;40.88;98142.25;6977231;28;20223;-79
2022/06/19 05:34:55;;;;;;;7.23;3.37;;;;;;;28.42;41.30;98109.75;6976493;28;20206;-79
2022/06/19 05:38:17;;;;;;;9.13;3.90;;;;;;;28.70;39.81;98118.34;6976540;28;20239;-78
2022/06/19 05:41:40;;;;;;;11.27;3.90;;;;;;;28.65;40.97;98127.69;6977175;28;20711;-78
2022/06/19 05:45:02;;;;;;;9.93;3.73;;;;;;;29.09;39.94;98123.44;6977175;28;20278;-78
2022/06/19 05:48:26;;;;;;;6.83;3.47;;;;;;;29.13;39.41;98133.50;6976342;28;20205;-78
2022/06/19 05:51:48;;;;;;;9.80;3.83;;;;;;;29.71;39.14;98130.44;6975318;28;20240;-78
2022/06/19 05:55:12;;;;;;;13.17;4.03;;;;;;;30.85;35.94;98128.22;6977295;28;20248;-78
2022/06/19 05:58:35;;;;;;;13.90;3.80;;;;;;;31.26;32.79;98111.13;6975531;28;20217;-80
2022/06/19 06:01:57;;;;;;;10.77;4.13;;;;;;;31.13;32.37;98120.69;6976136;28;20308;-79
2022/06/19 06:05:19;;;;;;;10.67;3.70;;;;;;;31.59;32.53;98123.59;6976050;28;20837;-78
2022/06/19 06:08:40;;;;;;;15.07;4.03;;;;;;;31.84;31.47;98119.50;6976237;28;20200;-78
2022/06/19 06:12:02;;;;;;;12.37;3.70;;;;;;;32.26;31.04;98100.25;6976702;28;20225;-79
2022/06/19 06:15:25;;;;;;;12.67;4.20;;;;;;;32.73;30.48;98109.31;6976460;28;20211;-79
2022/06/19 06:18:47;;;;;;;11.97;3.93;;;;;;;33.07;30.43;98120.44;6975627;28;20213;-79
2022/06/19 06:22:08;;;;;;;9.37;4.00;;;;;;;32.95;30.01;98112.19;6976641;28;20257;-79
2022/06/19 06:25:30;;;;;;;11.23;3.80;;;;;;;33.49;29.40;98112.91;6976755;28;20209;-79
2022/06/19 06:28:54;;;;;;;9.47;3.87;;;;;;;33.30;29.20;98120.53;6976171;28;20351;-79
2022/06/19 06:32:17;;;;;;;10.50;4.07;;;;;;;33.69;29.08;98106.09;6976505;28;20301;-79
2022/06/19 06:35:38;;;;;;;12.07;3.83;;;;;;;33.79;29.18;98099.13;6976399;28;20210;-80
2022/06/19 06:39:00;;;;;;;11.07;3.70;;;;;;;34.08;28.87;98124.38;6975779;28;20297;-79
2022/06/19 06:42:21;;;;;;;12.53;4.37;;;;;;;34.45;28.03;98108.63;6976034;28;20218;-79
2022/06/19 06:45:43;;;;;;;11.60;4.03;;;;;;;34.35;28.46;98112.06;6976349;28;20213;-79
2022/06/19 06:49:06;;;;;;;13.30;4.00;;;;;;;34.81;27.36;98119.19;6976367;28;20230;-79
2022/06/19 06:52:27;;;;;;;12.03;3.70;;;;;;;34.48;28.10;98116.25;6976538;28;20701;-79
2022/06/19 06:55:49;;;;;;;12.53;3.87;;;;;;;34.90;27.26;98097.28;6976369;28;20277;-80
2022/06/19 06:59:11;;;;;;;11.93;4.00;;;;;;;34.40;28.15;98105.34;6974042;28;20246;-80
2022/06/19 07:02:32;;;;;;;11.90;3.77;;;;;;;34.83;27.79;98110.41;6975268;28;20225;-80
2022/06/19 07:05:56;;;;;;;11.13;3.80;;;;;;;35.30;26.81;98110.59;6975780;28;20250;-80
2022/06/19 07:09:17;;;;;;;12.73;3.80;;;;;;;35.64;26.61;98100.94;6975114;28;20202;-80
2022/06/19 07:12:39;;;;;;;11.07;3.90;;;;;;;35.70;26.70;98096.63;6975352;28;20257;-80
2022/06/19 07:16:01;;;;;;;19.17;4.37;;;;;;;35.89;26.62;98111.25;6975470;28;20238;-80
2022/06/19 07:19:22;;;;;;;9.57;3.97;;;;;;;35.85;25.99;98096.38;6974729;28;20226;-80
2022/06/19 07:22:45;;;;;;;9.47;4.17;;;;;;;36.61;25.73;98098.19;6975424;28;20313;-80
2022/06/19 07:26:09;;;;;;;10.03;3.50;;;;;;;36.97;25.05;98108.44;6975835;28;20205;-79
2022/06/19 07:29:31;;;;;;;20.63;4.47;;;;;;;37.08;24.04;98098.06;6974797;28;20230;-79
2022/06/19 07:32:52;;;;;;;9.70;3.70;;;;;;;36.71;25.00;98100.28;6974466;28;20284;-80
2022/06/19 07:36:16;;;;;;;13.53;4.13;;;;;;;36.21;25.71;98095.53;6973372;28;20664;-80
2022/06/19 07:39:39;;;;;;;14.10;4.37;;;;;;;36.09;25.06;98070.53;6974359;28;20237;-80
2022/06/19 07:43:01;;;;;;;9.90;4.00;;;;;;;36.95;25.03;98079.91;6975390;28;20234;-80
2022/06/19 07:46:23;;;;;;;15.57;3.93;;;;;;;37.63;24.00;98098.66;6974942;28;20202;-80
2022/06/19 07:53:24;;;;;;;19.23;5.07;;;;;;;37.44;24.27;98074.47;6974867;28;20226;-80
2022/06/19 07:56:47;;;;;;;13.30;5.00;;;;;;;37.79;23.89;98094.25;6977155;28;20183;-80
2022/06/19 08:00:16;;;;;;;13.97;4.73;;;;;;;37.30;25.60;98096.94;6974183;28;20210;-80
2022/06/19 08:03:38;;;;;;;13.33;4.27;;;;;;;37.06;24.90;98089.22;6975387;28;20761;-80
2022/06/19 08:06:59;;;;;;;12.73;4.83;;;;;;;37.29;25.22;98084.09;6975119;28;20294;-80
2022/06/19 08:10:23;;;;;;;13.70;5.00;;;;;;;37.57;25.32;98086.19;6974537;28;20668;-80
2022/06/19 08:13:46;;;;;;;12.43;4.65;;;;;;;38.12;23.53;98096.72;6974923;28;20226;-80
2022/06/19 08:17:08;;;;;;;11.93;5.07;;;;;;;37.92;24.26;98094.69;6974855;28;20221;-80
2022/06/19 08:20:30;;;;;;;10.80;4.70;;;;;;;38.82;23.40;98093.00;6974545;28;20279;-80
2022/06/19 08:23:52;;;;;;;10.65;5.55;;;;;;;39.27;22.60;98083.59;6974864;28;20206;-80
2022/06/19 08:27:13;;;;;;;12.73;4.60;;;;;;;39.06;23.20;98092.16;6974795;28;20214;-80
2022/06/19 08:30:39;;;;;;;13.03;5.43;;;;;;;37.45;23.79;98107.06;6977738;28;20276;-80
2022/06/19 08:34:01;;;;;;;17.97;5.40;;;;;;;37.17;24.80;98073.22;6979942;28;20265;-80
2022/06/19 08:37:22;;;;;;;15.05;5.90;;;;;;;39.29;22.83;98090.47;6979541;28;20206;-80
2022/06/19 08:40:53;;;;;;;13.52;5.28;;;;;;;39.56;22.99;98076.59;6979624;28;20264;-81
2022/06/19 08:44:50;;;;;;;10.50;5.90;;;;;;;39.83;22.37;98075.63;6979746;28;20301;-80
2022/06/19 08:48:32;;;;;;;12.85;5.80;;;;;;;40.60;21.95;98072.16;6953416;28;20239;-80
2022/06/19 08:52:07;;;;;;;9.30;5.22;;;;;;;40.28;22.35;98080.13;6978490;28;20230;-80
2022/06/19 08:55:34;;;;;;;10.35;5.00;;;;;;;40.66;21.93;98075.34;6979900;28;20637;-80
2022/06/19 08:59:01;;;;;;;14.32;5.85;;;;;;;39.68;23.17;98076.94;6979193;28;20182;-80
2022/06/19 09:02:33;;;;;;;12.30;5.55;;;;;;;39.60;22.61;98081.00;6979821;28;20734;-80
2022/06/19 09:05:59;;;;;;;13.38;5.53;;;;;;;39.90;22.83;98067.09;6979726;28;20541;-80
2022/06/19 09:09:32;;;;;;;8.07;5.45;;;;;;;40.38;22.46;98076.38;6978895;28;20191;-80
2022/06/19 09:13:03;;;;;;;10.52;5.38;;;;;;;41.28;21.42;98059.63;6979161;28;20237;-81
2022/06/19 09:16:31;;;;;;;11.40;6.28;;;;;;;41.34;20.87;98083.41;6980297;28;20214;-80
2022/06/19 09:19:56;;;;;;;11.57;5.25;;;;;;;41.08;21.76;98080.50;6978550;28;20241;-80
2022/06/19 09:23:45;;;;;;;9.40;5.68;;;;;;;40.43;22.33;98061.78;6982350;28;20222;-80
2022/06/19 09:27:07;;;;;;;9.13;5.15;;;;;;;40.85;22.10;98067.00;6993502;28;20191;-80
2022/06/19 09:30:33;;;;;;;16.13;6.47;;;;;;;41.95;21.03;98070.78;6984465;28;20217;-80
2022/06/19 09:33:59;;;;;;;11.65;5.85;;;;;;;40.98;21.29;98061.63;6982475;28;20296;-80
2022/06/19 09:37:25;;;;;;;12.55;6.07;;;;;;;39.17;22.97;98057.06;6983743;28;20206;-79
2022/06/19 09:40:51;;;;;;;13.38;6.43;;;;;;;41.06;21.02;98063.97;6982410;28;20226;-80
2022/06/19 09:44:15;;;;;;;14.20;5.75;;;;;;;40.45;21.75;98059.38;6978487;28;20273;-80
2022/06/19 09:47:42;;;;;;;13.15;6.03;;;;;;;40.94;21.20;98060.84;6977195;28;20210;-79
2022/06/19 09:51:10;;;;;;;11.82;5.88;;;;;;;40.92;19.60;98061.28;6976639;28;20317;-80
2022/06/19 09:54:34;;;;;;;11.13;5.80;;;;;;;40.75;18.12;98067.94;6977288;28;20301;-79
2022/06/19 09:58:06;;;;;;;11.57;5.40;;;;;;;40.36;17.01;98061.06;6976477;28;20218;-80
2022/06/19 10:01:29;;;;;;;14.60;5.65;;;;;;;40.33;15.78;98045.78;6976891;28;20225;-79
2022/06/19 10:04:55;;;;;;;11.77;5.03;;;;;;;40.12;15.97;98050.75;6977088;28;20226;-79
2022/06/19 10:08:20;;;;;;;11.95;4.97;;;;;;;40.56;15.93;98045.94;6976780;28;20198;-80
2022/06/19 10:11:42;;;;;;;11.98;5.03;;;;;;;40.39;15.70;98035.63;6977378;28;20233;-79
2022/06/19 10:15:13;;;;;;;10.85;5.22;;;;;;;40.91;15.40;98036.25;6976630;28;20250;-80
2022/06/19 10:18:36;;;;;;;11.75;5.35;;;;;;;41.37;15.60;98036.50;6976689;28;20593;-80
2022/06/19 10:22:17;;;;;;;14.45;6.15;;;;;;;41.47;15.74;98019.34;6976421;28;20226;-80
2022/06/19 10:25:49;;;;;;;11.38;5.78;;;;;;;41.57;15.71;98032.53;6976673;28;20632;-79
2022/06/19 10:29:31;;;;;;;12.35;6.10;;;;;;;41.28;15.46;98036.16;6975977;28;20198;-80
2022/06/19 10:33:12;;;;;;;11.32;5.65;;;;;;;41.21;15.38;98028.59;6976722;28;20567;-79
2022/06/19 10:36:38;;;;;;;10.20;5.55;;;;;;;41.36;15.73;98038.50;6975794;28;20216;-80
2022/06/19 10:40:08;;;;;;;10.68;6.38;;;;;;;41.11;15.92;98017.41;6976295;28;20215;-79
2022/06/19 10:43:42;;;;;;;11.52;6.38;;;;;;;41.18;16.30;98037.94;6976196;28;20724;-79
2022/06/19 10:47:11;;;;;;;12.55;5.72;;;;;;;41.10;15.58;98039.25;6976506;28;20611;-80
2022/06/19 10:50:39;;;;;;;17.15;6.18;;;;;;;40.92;15.92;98026.53;6975149;28;20636;-79
2022/06/19 10:54:23;;;;;;;11.10;6.90;;;;;;;40.19;16.64;98034.59;6974995;28;20226;-79
2022/06/19 10:57:57;;;;;;;18.95;6.53;;;;;;;40.57;16.06;98026.97;6975340;28;20222;-80
2022/06/19 11:04:59;;;;;;;14.15;6.72;;;;;;;40.70;15.96;98026.00;6975375;28;20202;-79
2022/06/19 11:08:23;;;;;;;11.05;6.15;;;;;;;40.46;16.22;98023.41;6975113;28;20227;-79
2022/06/19 11:11:46;;;;;;;17.13;6.25;;;;;;;40.82;15.87;98010.50;6975801;28;20230;-79
2022/06/19 11:15:10;;;;;;;11.80;4.97;;;;;;;41.03;15.28;97996.91;6975762;28;20268;-79
2022/06/19 11:18:46;;;;;;;12.90;5.53;;;;;;;41.39;15.15;97995.22;6975006;28;20732;-79
2022/06/19 11:22:27;;;;;;;15.77;6.47;;;;;;;41.16;15.68;97980.97;6975693;28;20279;-79
2022/06/19 11:25:57;;;;;;;14.98;6.05;;;;;;;40.90;15.26;97990.19;6972768;28;20352;-79
2022/06/19 11:29:21;;;;;;;12.68;5.55;;;;;;;41.49;14.42;97996.28;6974699;28;20285;-79
2022/06/19 11:32:49;;;;;;;11.80;5.20;;;;;;;41.68;14.19;97989.88;6974699;28;20722;-80
2022/06/19 11:36:25;;;;;;;14.90;5.47;;;;;;;40.82;14.36;98004.84;6974966;28;20253;-79
2022/06/19 11:39:49;;;;;;;10.45;5.55;;;;;;;41.11;14.57;97995.59;6973985;28;20252;-79
2022/06/19 11:43:27;;;;;;;10.73;5.47;;;;;;;41.50;14.39;97972.38;6976721;28;20234;-80
2022/06/19 11:46:51;;;;;;;10.68;5.70;;;;;;;41.73;13.92;98003.56;6978499;28;20320;-80
2022/06/19 11:50:19;;;;;;;12.07;5.10;;;;;;;41.53;14.17;97994.97;6975503;28;20206;-79
2022/06/19 11:53:42;;;;;;;12.88;4.97;;;;;;;42.64;13.58;97999.13;6974394;28;20206;-80
2022/06/19 11:57:04;;;;;;;11.90;5.03;;;;;;;42.06;14.24;97991.28;6975932;28;20270;-80
2022/06/19 12:00:32;;;;;;;15.40;5.20;;;;;;;41.51;13.97;97959.84;6974809;28;20221;-80
2022/06/19 12:03:56;;;;;;;9.32;5.35;;;;;;;42.42;13.56;97995.88;6978164;28;20209;-80
2022/06/19 12:07:19;;;;;;;9.55;5.13;;;;;;;42.47;13.51;97981.19;6980473;28;20664;-80
2022/06/19 12:10:41;;;;;;;13.32;5.07;;;;;;;42.43;14.38;97974.00;6979869;28;20746;-80
2022/06/19 12:14:03;;;;;;;9.57;5.10;;;;;;;42.79;14.23;97957.88;6967247;28;20222;-80
2022/06/19 12:17:38;;;;;;;13.95;5.35;;;;;;;42.22;14.24;97975.22;6980493;28;20206;-80
2022/06/19 12:21:03;;;;;;;8.98;4.93;;;;;;;42.29;13.81;97966.56;6953525;28;20270;-80
2022/06/19 12:24:39;;;;;;;10.73;5.35;;;;;;;41.20;14.84;97970.38;6953490;28;20252;-80
2022/06/19 12:28:07;;;;;;;8.20;4.50;;;;;;;42.88;13.53;97947.53;6952793;28;20211;-80
2022/06/19 12:31:33;;;;;;;11.02;5.07;;;;;;;42.67;13.64;97956.50;6952716;28;20272;-80
2022/06/19 12:34:59;;;;;;;11.80;4.75;;;;;;;43.00;13.81;97958.25;6953181;28;20211;-80
2022/06/19 12:38:23;;;;;;;10.02;4.97;;;;;;;42.35;14.21;97938.50;6952508;28;20194;-80
2022/06/19 12:41:51;;;;;;;9.32;4.78;;;;;;;42.60;13.33;97953.81;6952528;28;20222;-80
2022/06/19 12:45:23;;;;;;;15.70;6.03;;;;;;;42.66;13.47;97951.28;6952702;28;20580;-81
2022/06/19 12:48:50;;;;;;;8.60;5.03;;;;;;;43.24;14.01;97956.88;6952407;28;20282;-80
2022/06/19 12:52:20;;;;;;;11.50;4.90;;;;;;;42.45;13.83;97946.81;6952077;28;20377;-80
2022/06/19 12:55:48;;;;;;;13.20;5.38;;;;;;;42.18;14.69;97962.31;6952502;28;20238;-79
2022/06/19 12:59:24;;;;;;;9.20;5.10;;;;;;;42.74;13.93;97950.69;6952078;28;20187;-80
2022/06/19 13:03:02;;;;;;;13.05;5.50;;;;;;;42.36;14.40;97911.75;6952380;28;20230;-80
2022/06/19 13:06:40;;;;;;;16.08;5.40;;;;;;;42.43;14.40;97942.81;6952453;28;20199;-80
2022/06/19 13:10:25;;;;;;;13.73;5.28;;;;;;;42.34;14.17;97951.09;6951294;28;20765;-80
2022/06/19 13:14:03;;;;;;;7.82;4.70;;;;;;;42.32;14.10;97948.69;6951324;28;20294;-80
2022/06/19 13:17:28;;;;;;;13.43;5.07;;;;;;;42.45;13.91;97938.31;6950637;28;20346;-80
2022/06/19 13:20:55;;;;;;;8.30;3.92;;;;;;;42.68;14.09;97938.25;6951121;28;20227;-79
2022/06/19 13:24:27;;;;;;;15.63;4.95;;;;;;;42.75;14.74;97934.47;6951643;28;20195;-80
2022/06/19 13:28:02;;;;;;;11.73;5.60;;;;;;;42.80;13.75;97940.44;6951193;28;20233;-80
2022/06/19 13:31:29;;;;;;;13.88;5.25;;;;;;;42.49;13.94;97935.41;6951699;28;20227;-80
2022/06/19 13:34:58;;;;;;;9.95;5.10;;;;;;;41.73;14.84;97942.03;6951636;28;20786;-80
2022/06/19 13:38:40;;;;;;;9.82;5.28;;;;;;;42.03;14.59;97907.94;6950907;28;20214;-80
2022/06/19 13:42:08;;;;;;;13.57;5.07;;;;;;;42.55;14.29;97913.81;6951678;28;20223;-80
2022/06/19 13:45:41;;;;;;;11.50;5.60;;;;;;;42.68;14.04;97898.53;6951166;28;20658;-79
2022/06/19 13:49:12;;;;;;;8.65;4.53;;;;;;;43.23;13.72;97912.69;6950638;28;20214;-79
2022/06/19 13:52:42;;;;;;;10.13;5.00;;;;;;;42.61;13.60;97892.25;6950349;28;20594;-80
2022/06/19 13:56:09;;;;;;;9.68;4.95;;;;;;;42.60;13.18;97905.59;6951095;28;20296;-79
2022/06/19 13:59:47;;;;;;;13.45;5.03;;;;;;;42.68;13.15;97901.38;6952601;28;20238;-82
2022/06/19 14:04:45;;;;;;;16.70;4.90;;;;;;;42.28;13.33;97888.47;6952561;28;20234;-83
2022/06/19 14:07:15;;;;;;;11.88;5.50;;;;;;;42.21;13.80;97877.25;6952617;28;20732;-86
2022/06/19 14:10:44;;;;;;;8.90;4.68;;;;;;;41.95;14.20;97892.31;6952509;28;20893;-82
2022/06/19 14:14:06;;;;;;;9.98;5.00;;;;;;;42.35;13.59;97861.97;6953801;28;20698;-83
2022/06/19 14:17:31;;;;;;;10.70;5.32;;;;;;;42.36;13.35;97864.38;6952383;28;20222;-83
2022/06/19 14:21:07;;;;;;;13.07;5.43;;;;;;;42.68;13.19;97830.47;6952901;28;20227;-84
2022/06/19 14:24:38;;;;;;;9.40;4.78;;;;;;;42.52;13.57;97838.94;6971665;28;20674;-84
2022/06/19 14:28:08;;;;;;;15.90;5.05;;;;;;;42.57;13.52;97843.31;6978236;28;20217;-81
2022/06/19 14:31:30;;;;;;;14.93;5.57;;;;;;;42.73;13.88;97846.97;6980464;28;20223;-83
2022/06/19 14:35:08;;;;;;;14.30;5.15;;;;;;;42.16;13.86;97835.28;6980360;28;20703;-83
2022/06/19 14:38:35;;;;;;;12.77;5.20;;;;;;;42.49;13.59;97847.53;6980242;28;20209;-83
2022/06/19 14:41:58;;;;;;;13.50;4.60;;;;;;;41.93;13.85;97843.81;6980749;28;20229;-80
2022/06/19 14:45:22;;;;;;;13.30;5.00;;;;;;;42.12;13.54;97850.69;6980212;28;20213;-80
2022/06/19 14:48:53;;;;;;;12.88;4.72;;;;;;;42.59;13.76;97835.16;6979786;28;20341;-79
2022/06/19 14:52:26;;;;;;;9.27;4.88;;;;;;;43.00;13.63;97833.41;6980228;28;20222;-82
2022/06/19 14:55:54;;;;;;;15.05;5.38;;;;;;;42.22;13.74;97838.38;6981772;28;20225;-80
2022/06/19 14:59:20;;;;;;;10.25;5.43;;;;;;;42.07;14.55;97829.34;6980275;28;20284;-79
2022/06/19 15:02:48;;;;;;;12.35;5.32;;;;;;;42.50;14.36;97827.22;6987032;28;20230;-83
2022/06/19 15:06:15;;;;;;;14.00;5.32;;;;;;;42.16;14.16;97825.94;6997299;28;20252;-81
2022/06/19 15:09:43;;;;;;;15.27;5.30;;;;;;;42.15;14.17;97813.78;6990192;28;20202;-83
2022/06/19 15:13:18;;;;;;;10.98;6.20;;;;;;;42.51;14.16;97825.19;6971668;28;20219;-80
2022/06/19 15:16:42;;;;;;;10.25;4.65;;;;;;;42.57;14.58;97821.44;6968952;28;20237;-81
2022/06/19 15:20:40;;;;;;;14.75;4.82;;;;;;;42.45;14.47;97813.59;6966979;28;20211;-79
2022/06/19 15:24:02;;;;;;;14.75;5.05;;;;;;;42.33;14.13;97822.75;6967818;28;20211;-81
2022/06/19 15:27:28;;;;;;;11.80;4.65;;;;;;;42.22;13.86;97799.50;6953035;28;20218;-81
2022/06/19 15:30:51;;;;;;;8.10;4.10;;;;;;;41.57;15.00;97831.53;6953756;28;20223;-80
2022/06/19 15:34:32;;;;;;;7.85;5.00;;;;;;;41.99;14.62;97812.91;6956024;28;20253;-81
2022/06/19 15:38:05;;;;;;;11.88;5.10;;;;;;;42.27;14.44;97804.66;6951317;28;20191;-84
2022/06/19 15:42:05;;;;;;;12.90;5.28;;;;;;;42.26;13.93;97799.44;6950089;28;20231;-81
2022/06/19 15:45:52;;;;;;;14.85;5.32;;;;;;;42.65;14.42;97790.84;6950896;28;20211;-81
2022/06/19 15:49:14;;;;;;;11.52;4.80;;;;;;;42.37;14.32;97800.00;6949313;28;20211;-80
2022/06/19 15:52:37;;;;;;;9.75;4.53;;;;;;;42.17;14.84;97787.88;6948908;28;20791;-80
2022/06/19 15:56:01;;;;;;;10.38;5.60;;;;;;;41.92;14.42;97785.56;6966395;28;20678;-80
2022/06/19 15:59:25;;;;;;;11.57;5.45;;;;;;;42.13;15.02;97778.66;6974605;28;20241;-80
2022/06/19 16:02:49;;;;;;;10.73;5.18;;;;;;;41.83;14.85;97799.50;6975418;28;20227;-81
2022/06/19 16:06:12;;;;;;;10.18;5.53;;;;;;;42.21;14.66;97782.94;6977210;28;20695;-80
2022/06/19 16:09:47;;;;;;;13.80;5.25;;;;;;;41.81;15.29;97770.81;6976919;28;20667;-86
2022/06/19 16:13:18;;;;;;;52.00;38.17;;;;;;;41.74;15.24;97793.59;6976093;28;20223;-80
2022/06/19 16:16:48;;;;;;;23.85;12.70;;;;;;;42.25;14.44;97783.66;6977530;28;20309;-83